createdAt,value
2017-11-09T00:00:21.016Z,0
2017-11-09T00:01:01.591Z,0
2017-11-09T00:01:42.163Z,0
2017-11-09T00:02:22.721Z,0
2017-11-09T00:03:03.287Z,0
2017-11-09T00:03:43.837Z,0
2017-11-09T00:04:24.401Z,0
2017-11-09T00:05:04.989Z,0
2017-11-09T00:05:45.566Z,0
2017-11-09T00:06:26.138Z,0
2017-11-09T00:07:06.720Z,0
2017-11-09T00:07:47.279Z,0
2017-11-09T00:08:27.851Z,0
2017-11-09T00:09:08.443Z,0
2017-11-09T00:09:49.022Z,0
2017-11-09T00:10:29.637Z,0
2017-11-09T00:11:10.214Z,0
2017-11-09T00:11:50.775Z,0
2017-11-09T00:12:31.372Z,0
2017-11-09T00:13:11.940Z,0
2017-11-09T00:13:52.510Z,0
2017-11-09T00:14:33.075Z,0
2017-11-09T00:15:13.651Z,0
2017-11-09T00:15:54.225Z,0
2017-11-09T00:16:34.790Z,0
2017-11-09T00:17:15.378Z,0
2017-11-09T00:17:55.945Z,0
2017-11-09T00:18:36.506Z,0
2017-11-09T00:19:17.065Z,0
2017-11-09T00:19:57.631Z,0
2017-11-09T00:20:38.211Z,0
2017-11-09T00:21:18.787Z,0
2017-11-09T00:21:59.343Z,0
2017-11-09T00:22:39.954Z,0
2017-11-09T00:23:20.572Z,0
2017-11-09T00:24:01.140Z,0
2017-11-09T00:24:41.696Z,0
2017-11-09T00:25:22.251Z,0
2017-11-09T00:26:02.811Z,0
2017-11-09T00:26:43.415Z,0
2017-11-09T00:27:23.982Z,0
2017-11-09T00:28:04.549Z,0
2017-11-09T00:28:45.116Z,0
2017-11-09T00:29:25.702Z,0
2017-11-09T00:30:06.271Z,0
2017-11-09T00:30:46.850Z,0
2017-11-09T00:31:27.413Z,0
2017-11-09T00:32:07.990Z,0
2017-11-09T00:32:48.562Z,0
2017-11-09T00:33:29.133Z,0
2017-11-09T00:34:09.709Z,0
2017-11-09T00:34:50.272Z,0
2017-11-09T00:35:30.879Z,0
2017-11-09T00:36:11.836Z,0
2017-11-09T00:36:52.341Z,0
2017-11-09T00:37:32.911Z,0
2017-11-09T00:38:13.499Z,0
2017-11-09T00:38:54.052Z,0
2017-11-09T00:39:34.616Z,0
2017-11-09T00:40:15.186Z,0
2017-11-09T00:40:55.769Z,0
2017-11-09T00:41:36.318Z,0
2017-11-09T00:42:16.876Z,0
2017-11-09T00:42:57.436Z,0
2017-11-09T00:43:38.004Z,0
2017-11-09T00:44:18.561Z,0
2017-11-09T00:44:59.124Z,0
2017-11-09T00:45:39.695Z,0
2017-11-09T00:46:20.253Z,0
2017-11-09T00:47:00.814Z,0
2017-11-09T00:47:41.376Z,0
2017-11-09T00:48:21.952Z,0
2017-11-09T00:49:02.519Z,0
2017-11-09T00:49:43.095Z,0
2017-11-09T00:50:23.731Z,0
2017-11-09T00:51:04.285Z,0
2017-11-09T00:51:44.848Z,0
2017-11-09T00:52:25.418Z,0
2017-11-09T00:53:05.987Z,0
2017-11-09T00:53:46.555Z,0
2017-11-09T00:54:27.129Z,0
2017-11-09T00:55:07.687Z,0
2017-11-09T00:55:48.257Z,0
2017-11-09T00:56:28.829Z,0
2017-11-09T00:57:09.414Z,0
2017-11-09T00:57:49.986Z,0
2017-11-09T00:58:30.554Z,0
2017-11-09T00:59:11.120Z,0
2017-11-09T00:59:51.715Z,0
2017-11-09T01:00:32.281Z,0
2017-11-09T01:01:12.833Z,0
2017-11-09T01:01:53.423Z,0
2017-11-09T01:02:33.971Z,0
2017-11-09T01:03:14.537Z,0
2017-11-09T01:03:55.112Z,0
2017-11-09T01:04:35.670Z,0
2017-11-09T01:05:16.265Z,0
2017-11-09T01:05:56.832Z,0
2017-11-09T01:06:37.393Z,0
2017-11-09T01:07:17.977Z,0
2017-11-09T01:07:58.551Z,0
2017-11-09T01:08:39.110Z,0
2017-11-09T01:09:19.682Z,0
2017-11-09T01:10:00.240Z,0
2017-11-09T01:10:40.818Z,0
2017-11-09T01:11:21.386Z,0
2017-11-09T01:12:01.999Z,0
2017-11-09T01:12:42.564Z,0
2017-11-09T01:13:23.152Z,0
2017-11-09T01:14:03.706Z,0
2017-11-09T01:14:44.287Z,0
2017-11-09T01:15:24.872Z,0
2017-11-09T01:16:05.466Z,0
2017-11-09T01:16:46.045Z,0
2017-11-09T01:17:26.621Z,0
2017-11-09T01:18:07.210Z,0
2017-11-09T01:18:47.741Z,0
2017-11-09T01:19:28.291Z,0
2017-11-09T01:20:08.853Z,0
2017-11-09T01:20:49.444Z,0
2017-11-09T01:21:30.013Z,0
2017-11-09T01:22:10.594Z,0
2017-11-09T01:22:51.163Z,0
2017-11-09T01:23:31.751Z,0
2017-11-09T01:24:12.334Z,0
2017-11-09T01:24:52.899Z,0
2017-11-09T01:25:33.483Z,0
2017-11-09T01:26:14.054Z,0
2017-11-09T01:26:54.618Z,0
2017-11-09T01:27:35.192Z,0
2017-11-09T01:28:15.754Z,0
2017-11-09T01:28:56.358Z,0
2017-11-09T01:29:36.925Z,0
2017-11-09T01:30:17.526Z,0
2017-11-09T01:30:58.096Z,0
2017-11-09T01:31:38.686Z,0
2017-11-09T01:32:19.276Z,0
2017-11-09T01:32:59.855Z,0
2017-11-09T01:33:40.440Z,0
2017-11-09T01:34:21.027Z,0
2017-11-09T01:35:02.291Z,0
2017-11-09T01:35:42.880Z,0
2017-11-09T01:36:23.454Z,0
2017-11-09T01:37:04.012Z,0
2017-11-09T01:37:44.597Z,0
2017-11-09T01:38:25.167Z,0
2017-11-09T01:39:05.739Z,0
2017-11-09T01:39:46.322Z,0
2017-11-09T01:40:26.887Z,0
2017-11-09T01:41:07.461Z,0
2017-11-09T01:41:48.039Z,0
2017-11-09T01:42:28.614Z,0
2017-11-09T01:43:09.194Z,0
2017-11-09T01:43:49.762Z,0
2017-11-09T01:44:30.330Z,0
2017-11-09T01:45:10.909Z,0
2017-11-09T01:45:51.524Z,0
2017-11-09T01:46:32.112Z,0
2017-11-09T01:47:12.682Z,0
2017-11-09T01:47:53.261Z,0
2017-11-09T01:48:33.840Z,0
2017-11-09T01:49:14.426Z,0
2017-11-09T01:49:55.002Z,0
2017-11-09T01:50:35.569Z,0
2017-11-09T01:51:16.159Z,0
2017-11-09T01:51:56.741Z,0
2017-11-09T01:52:37.307Z,0
2017-11-09T01:53:17.874Z,0
2017-11-09T01:53:58.452Z,0
2017-11-09T01:54:39.036Z,0
2017-11-09T01:55:19.627Z,0
2017-11-09T01:56:00.188Z,0
2017-11-09T01:56:40.751Z,0
2017-11-09T01:57:21.319Z,0
2017-11-09T01:58:01.937Z,0
2017-11-09T01:58:42.556Z,0
2017-11-09T01:59:23.118Z,0
2017-11-09T02:00:03.692Z,0
2017-11-09T02:00:44.253Z,0
2017-11-09T02:01:24.818Z,0
2017-11-09T02:02:05.388Z,0
2017-11-09T02:02:45.961Z,0
2017-11-09T02:03:26.551Z,0
2017-11-09T02:04:07.134Z,0
2017-11-09T02:04:47.698Z,0
2017-11-09T02:05:28.277Z,0
2017-11-09T02:06:08.917Z,0
2017-11-09T02:06:49.482Z,0
2017-11-09T02:07:30.050Z,0
2017-11-09T02:08:10.620Z,0
2017-11-09T02:08:51.180Z,0
2017-11-09T02:09:31.765Z,0
2017-11-09T02:10:12.358Z,0
2017-11-09T02:10:52.941Z,0
2017-11-09T02:11:33.506Z,0
2017-11-09T02:12:14.118Z,0
2017-11-09T02:12:54.697Z,0
2017-11-09T02:13:35.254Z,0
2017-11-09T02:14:15.836Z,0
2017-11-09T02:14:56.455Z,0
2017-11-09T02:15:37.016Z,0
2017-11-09T02:16:17.601Z,0
2017-11-09T02:16:58.201Z,0
2017-11-09T02:17:38.774Z,0
2017-11-09T02:18:19.346Z,0
2017-11-09T02:18:59.913Z,0
2017-11-09T02:19:40.516Z,0
2017-11-09T02:20:21.116Z,0
2017-11-09T02:21:01.719Z,0
2017-11-09T02:21:42.287Z,0
2017-11-09T02:22:22.855Z,0
2017-11-09T02:23:03.423Z,0
2017-11-09T02:23:43.988Z,0
2017-11-09T02:24:24.563Z,0
2017-11-09T02:25:05.165Z,0
2017-11-09T02:25:45.749Z,0
2017-11-09T02:26:26.313Z,0
2017-11-09T02:27:06.882Z,0
2017-11-09T02:27:47.486Z,0
2017-11-09T02:28:28.052Z,0
2017-11-09T02:29:08.624Z,0
2017-11-09T02:29:49.192Z,0
2017-11-09T02:30:29.789Z,0
2017-11-09T02:31:10.380Z,0
2017-11-09T02:31:50.948Z,0
2017-11-09T02:32:31.531Z,0
2017-11-09T02:33:12.114Z,0
2017-11-09T02:33:52.680Z,0
2017-11-09T02:34:33.281Z,0
2017-11-09T02:35:13.857Z,0
2017-11-09T02:35:54.429Z,0
2017-11-09T02:36:35.001Z,0
2017-11-09T02:37:15.614Z,0
2017-11-09T02:37:56.181Z,0
2017-11-09T02:38:36.773Z,0
2017-11-09T02:39:17.331Z,0
2017-11-09T02:39:57.908Z,0
2017-11-09T02:40:38.490Z,0
2017-11-09T02:41:19.062Z,0
2017-11-09T02:41:59.632Z,0
2017-11-09T02:42:40.205Z,0
2017-11-09T02:43:20.789Z,0
2017-11-09T02:44:01.412Z,0
2017-11-09T02:44:41.966Z,0
2017-11-09T02:45:22.546Z,0
2017-11-09T02:46:03.113Z,0
2017-11-09T02:46:43.691Z,0
2017-11-09T02:47:24.276Z,0
2017-11-09T02:48:04.938Z,0
2017-11-09T02:48:45.522Z,0
2017-11-09T02:49:26.110Z,0
2017-11-09T02:50:06.715Z,0
2017-11-09T02:50:47.270Z,0
2017-11-09T02:51:27.833Z,0
2017-11-09T02:52:08.423Z,0
2017-11-09T02:52:48.990Z,0
2017-11-09T02:53:29.567Z,0
2017-11-09T02:54:10.135Z,0
2017-11-09T02:54:50.743Z,0
2017-11-09T02:55:31.320Z,0
2017-11-09T02:56:11.887Z,0
2017-11-09T02:56:52.445Z,0
2017-11-09T02:57:33.009Z,0
2017-11-09T02:58:13.597Z,0
2017-11-09T02:58:54.181Z,0
2017-11-09T02:59:34.737Z,0
2017-11-09T03:00:15.319Z,0
2017-11-09T03:00:55.878Z,0
2017-11-09T03:01:36.505Z,0
2017-11-09T03:02:17.079Z,0
2017-11-09T03:02:57.661Z,0
2017-11-09T03:03:38.226Z,0
2017-11-09T03:04:18.800Z,0
2017-11-09T03:04:59.379Z,0
2017-11-09T03:05:39.983Z,0
2017-11-09T03:06:20.578Z,0
2017-11-09T03:07:01.161Z,0
2017-11-09T03:07:41.720Z,0
2017-11-09T03:08:22.305Z,0
2017-11-09T03:09:02.877Z,0
2017-11-09T03:09:43.437Z,0
2017-11-09T03:10:24.039Z,0
2017-11-09T03:11:04.596Z,0
2017-11-09T03:11:45.169Z,0
2017-11-09T03:12:25.719Z,0
2017-11-09T03:13:06.291Z,0
2017-11-09T03:13:46.858Z,0
2017-11-09T03:14:27.434Z,0
2017-11-09T03:15:08.000Z,0
2017-11-09T03:15:48.578Z,0
2017-11-09T03:16:29.149Z,0
2017-11-09T03:17:09.709Z,0
2017-11-09T03:17:50.305Z,0
2017-11-09T03:18:30.879Z,0
2017-11-09T03:19:11.457Z,0
2017-11-09T03:19:52.030Z,0
2017-11-09T03:20:32.589Z,0
2017-11-09T03:21:13.158Z,0
2017-11-09T03:21:53.734Z,0
2017-11-09T03:22:34.307Z,0
2017-11-09T03:23:14.876Z,0
2017-11-09T03:23:55.465Z,0
2017-11-09T03:24:36.102Z,0
2017-11-09T03:25:16.690Z,0
2017-11-09T03:25:57.241Z,0
2017-11-09T03:26:37.814Z,0
2017-11-09T03:27:18.362Z,0
2017-11-09T03:27:58.924Z,0
2017-11-09T03:28:39.494Z,0
2017-11-09T03:29:20.050Z,0
2017-11-09T03:30:00.604Z,0
2017-11-09T03:30:41.427Z,0
2017-11-09T03:31:21.981Z,0
2017-11-09T03:32:02.557Z,0
2017-11-09T03:32:43.132Z,0
2017-11-09T03:33:23.691Z,0
2017-11-09T03:34:04.277Z,0
2017-11-09T03:34:44.876Z,0
2017-11-09T03:35:25.460Z,0
2017-11-09T03:36:06.018Z,0
2017-11-09T03:36:46.587Z,0
2017-11-09T03:37:27.149Z,0
2017-11-09T03:38:07.708Z,0
2017-11-09T03:38:48.286Z,0
2017-11-09T03:39:28.851Z,0
2017-11-09T03:40:09.408Z,0
2017-11-09T03:40:49.982Z,0
2017-11-09T03:41:30.536Z,0
2017-11-09T03:42:11.121Z,0
2017-11-09T03:42:51.731Z,0
2017-11-09T03:43:32.296Z,0
2017-11-09T03:44:12.855Z,0
2017-11-09T03:44:53.429Z,0
2017-11-09T03:45:34.001Z,0
2017-11-09T03:46:14.565Z,0
2017-11-09T03:46:55.125Z,0
2017-11-09T03:47:35.718Z,0
2017-11-09T03:48:16.283Z,0
2017-11-09T03:48:56.874Z,0
2017-11-09T03:49:37.447Z,0
2017-11-09T03:50:17.998Z,0
2017-11-09T03:50:58.564Z,0
2017-11-09T03:51:39.163Z,0
2017-11-09T03:52:19.737Z,0
2017-11-09T03:53:00.297Z,0
2017-11-09T03:53:40.892Z,0
2017-11-09T03:54:21.459Z,0
2017-11-09T03:55:02.019Z,0
2017-11-09T03:55:42.587Z,0
2017-11-09T03:56:23.157Z,0
2017-11-09T03:57:03.767Z,0
2017-11-09T03:57:44.282Z,0
2017-11-09T03:58:24.844Z,0
2017-11-09T03:59:05.401Z,0
2017-11-09T03:59:45.985Z,0
2017-11-09T04:00:26.554Z,0
2017-11-09T04:01:07.126Z,0
2017-11-09T04:01:47.690Z,0
2017-11-09T04:02:28.255Z,0
2017-11-09T04:03:08.815Z,0
2017-11-09T04:03:49.384Z,0
2017-11-09T04:04:29.939Z,0
2017-11-09T04:05:10.511Z,0
2017-11-09T04:05:51.073Z,0
2017-11-09T04:06:31.644Z,0
2017-11-09T04:07:12.234Z,0
2017-11-09T04:07:52.823Z,0
2017-11-09T04:08:33.387Z,0
2017-11-09T04:09:13.942Z,0
2017-11-09T04:09:54.509Z,0
2017-11-09T04:10:35.079Z,0
2017-11-09T04:11:15.652Z,0
2017-11-09T04:11:56.218Z,0
2017-11-09T04:12:36.774Z,0
2017-11-09T04:13:17.357Z,0
2017-11-09T04:13:57.942Z,0
2017-11-09T04:14:38.542Z,0
2017-11-09T04:15:19.133Z,0
2017-11-09T04:15:59.720Z,0
2017-11-09T04:16:40.272Z,0
2017-11-09T04:17:20.854Z,0
2017-11-09T04:18:01.433Z,0
2017-11-09T04:18:41.998Z,0
2017-11-09T04:19:22.563Z,0
2017-11-09T04:20:03.134Z,0
2017-11-09T04:20:43.687Z,0
2017-11-09T04:21:24.259Z,0
2017-11-09T04:22:04.855Z,0
2017-11-09T04:22:45.446Z,0
2017-11-09T04:23:25.997Z,0
2017-11-09T04:24:06.565Z,0
2017-11-09T04:24:47.134Z,0
2017-11-09T04:25:27.703Z,0
2017-11-09T04:26:08.263Z,0
2017-11-09T04:26:48.815Z,0
2017-11-09T04:27:29.371Z,0
2017-11-09T04:28:09.964Z,0
2017-11-09T04:28:50.536Z,0
2017-11-09T04:29:31.087Z,0
2017-11-09T04:30:11.645Z,0
2017-11-09T04:30:52.206Z,0
2017-11-09T04:31:32.769Z,0
2017-11-09T04:32:13.320Z,0
2017-11-09T04:32:53.898Z,0
2017-11-09T04:33:34.460Z,0
2017-11-09T04:34:15.050Z,0
2017-11-09T04:34:55.635Z,0
2017-11-09T04:35:36.197Z,0
2017-11-09T04:36:16.780Z,0
2017-11-09T04:36:57.338Z,0
2017-11-09T04:37:37.917Z,0
2017-11-09T04:38:18.486Z,0
2017-11-09T04:38:59.060Z,0
2017-11-09T04:39:39.625Z,0
2017-11-09T04:40:20.207Z,0
2017-11-09T04:41:00.807Z,0
2017-11-09T04:41:41.384Z,0
2017-11-09T04:42:21.950Z,0
2017-11-09T04:43:02.529Z,0
2017-11-09T04:43:43.099Z,0
2017-11-09T04:44:23.678Z,0
2017-11-09T04:45:04.259Z,0
2017-11-09T04:45:44.854Z,0
2017-11-09T04:46:25.426Z,0
2017-11-09T04:47:05.982Z,0
2017-11-09T04:47:46.562Z,0
2017-11-09T04:48:27.140Z,0
2017-11-09T04:49:07.726Z,0
2017-11-09T04:49:48.299Z,0
2017-11-09T04:50:28.870Z,0
2017-11-09T04:51:09.436Z,0
2017-11-09T04:51:50.067Z,0
2017-11-09T04:52:30.654Z,0
2017-11-09T04:53:11.228Z,0
2017-11-09T04:53:51.795Z,0
2017-11-09T04:54:32.356Z,0
2017-11-09T04:55:12.921Z,0
2017-11-09T04:55:53.487Z,0
2017-11-09T04:56:34.066Z,0
2017-11-09T04:57:14.641Z,0
2017-11-09T04:57:55.200Z,0
2017-11-09T04:58:35.761Z,0
2017-11-09T04:59:16.336Z,0
2017-11-09T04:59:56.913Z,0
2017-11-09T05:00:37.475Z,0
2017-11-09T05:01:18.076Z,0
2017-11-09T05:01:58.644Z,0
2017-11-09T05:02:39.213Z,0
2017-11-09T05:03:19.789Z,0
2017-11-09T05:04:00.358Z,0
2017-11-09T05:04:40.949Z,0
2017-11-09T05:05:21.514Z,0
2017-11-09T05:06:02.070Z,0
2017-11-09T05:06:42.643Z,0
2017-11-09T05:07:23.228Z,0
2017-11-09T05:08:03.788Z,0
2017-11-09T05:08:44.346Z,0
2017-11-09T05:09:24.906Z,0
2017-11-09T05:10:05.473Z,0
2017-11-09T05:10:46.051Z,0
2017-11-09T05:11:26.600Z,0
2017-11-09T05:12:07.179Z,0
2017-11-09T05:12:47.951Z,0
2017-11-09T05:13:28.883Z,0
2017-11-09T05:14:09.464Z,0
2017-11-09T05:14:50.016Z,0
2017-11-09T05:15:30.791Z,0
2017-11-09T05:16:11.366Z,0
2017-11-09T05:16:52.209Z,0
2017-11-09T05:17:32.771Z,0
2017-11-09T05:18:13.452Z,0
2017-11-09T05:18:54.007Z,0
2017-11-09T05:19:34.566Z,0
2017-11-09T05:20:15.152Z,0
2017-11-09T05:20:55.729Z,0
2017-11-09T05:21:36.304Z,0
2017-11-09T05:22:16.869Z,0
2017-11-09T05:22:57.443Z,0
2017-11-09T05:23:38.001Z,0
2017-11-09T05:24:18.579Z,0
2017-11-09T05:24:59.146Z,0
2017-11-09T05:25:39.707Z,0
2017-11-09T05:26:20.285Z,0
2017-11-09T05:27:00.862Z,0
2017-11-09T05:27:41.441Z,0
2017-11-09T05:28:21.997Z,0
2017-11-09T05:29:02.558Z,0
2017-11-09T05:29:43.127Z,0
2017-11-09T05:30:23.703Z,0
2017-11-09T05:31:04.262Z,0
2017-11-09T05:31:44.831Z,0
2017-11-09T05:32:25.394Z,0
2017-11-09T05:33:05.980Z,0
2017-11-09T05:33:46.531Z,0
2017-11-09T05:34:27.113Z,0
2017-11-09T05:35:07.686Z,0
2017-11-09T05:35:48.257Z,0
2017-11-09T05:36:28.872Z,0
2017-11-09T05:37:09.455Z,0
2017-11-09T05:37:50.039Z,0
2017-11-09T05:38:30.600Z,0
2017-11-09T05:39:11.174Z,0
2017-11-09T05:39:51.748Z,0
2017-11-09T05:40:32.309Z,0
2017-11-09T05:41:12.878Z,0
2017-11-09T05:41:53.458Z,0
2017-11-09T05:42:34.028Z,0
2017-11-09T05:43:14.609Z,0
2017-11-09T05:43:56.144Z,0
2017-11-09T05:44:36.754Z,0
2017-11-09T05:45:17.332Z,0
2017-11-09T05:45:57.918Z,0
2017-11-09T05:46:38.482Z,0
2017-11-09T05:47:19.064Z,0
2017-11-09T05:47:59.629Z,0
2017-11-09T05:48:40.200Z,0
2017-11-09T05:49:20.785Z,0
2017-11-09T05:50:01.340Z,0
2017-11-09T05:50:41.979Z,0
2017-11-09T05:51:22.540Z,0
2017-11-09T05:52:03.134Z,0
2017-11-09T05:52:43.705Z,0
2017-11-09T05:53:24.260Z,0
2017-11-09T05:54:04.823Z,0
2017-11-09T05:54:45.392Z,0
2017-11-09T05:55:25.951Z,0
2017-11-09T05:56:06.531Z,0
2017-11-09T05:56:47.077Z,0
2017-11-09T05:57:27.680Z,0
2017-11-09T05:58:08.260Z,0
2017-11-09T05:58:48.832Z,0
2017-11-09T05:59:29.441Z,0
2017-11-09T06:00:10.001Z,0
2017-11-09T06:00:50.596Z,4
2017-11-09T06:01:31.208Z,4
2017-11-09T06:02:11.780Z,4
2017-11-09T06:02:52.347Z,4
2017-11-09T06:03:32.922Z,4
2017-11-09T06:04:13.489Z,0
2017-11-09T06:04:54.061Z,4
2017-11-09T06:05:34.609Z,4
2017-11-09T06:06:15.174Z,4
2017-11-09T06:06:55.744Z,4
2017-11-09T06:07:36.311Z,4
2017-11-09T06:08:16.892Z,8
2017-11-09T06:08:57.463Z,4
2017-11-09T06:09:38.035Z,4
2017-11-09T06:10:18.618Z,8
2017-11-09T06:10:59.183Z,8
2017-11-09T06:11:39.769Z,4
2017-11-09T06:12:20.343Z,8
2017-11-09T06:13:00.945Z,8
2017-11-09T06:13:41.516Z,8
2017-11-09T06:14:22.116Z,8
2017-11-09T06:15:02.708Z,12
2017-11-09T06:15:43.259Z,8
2017-11-09T06:16:23.824Z,8
2017-11-09T06:17:04.399Z,12
2017-11-09T06:17:44.976Z,12
2017-11-09T06:18:25.545Z,12
2017-11-09T06:19:06.112Z,12
2017-11-09T06:19:46.708Z,12
2017-11-09T06:20:27.275Z,16
2017-11-09T06:21:07.852Z,16
2017-11-09T06:21:48.418Z,16
2017-11-09T06:22:28.982Z,16
2017-11-09T06:23:09.553Z,20
2017-11-09T06:23:50.130Z,16
2017-11-09T06:24:30.706Z,20
2017-11-09T06:25:11.276Z,20
2017-11-09T06:25:51.854Z,20
2017-11-09T06:26:32.419Z,24
2017-11-09T06:27:13.005Z,24
2017-11-09T06:27:53.573Z,24
2017-11-09T06:28:34.152Z,24
2017-11-09T06:29:14.717Z,28
2017-11-09T06:29:55.261Z,24
2017-11-09T06:30:35.824Z,28
2017-11-09T06:31:16.416Z,32
2017-11-09T06:31:56.971Z,28
2017-11-09T06:32:37.529Z,32
2017-11-09T06:33:18.094Z,32
2017-11-09T06:33:58.678Z,32
2017-11-09T06:34:39.239Z,36
2017-11-09T06:35:19.803Z,36
2017-11-09T06:36:00.380Z,36
2017-11-09T06:36:40.954Z,36
2017-11-09T06:37:21.522Z,40
2017-11-09T06:38:02.160Z,40
2017-11-09T06:38:42.729Z,44
2017-11-09T06:39:23.309Z,44
2017-11-09T06:40:03.884Z,48
2017-11-09T06:40:44.459Z,48
2017-11-09T06:41:25.033Z,48
2017-11-09T06:42:05.606Z,48
2017-11-09T06:42:46.225Z,56
2017-11-09T06:43:26.781Z,56
2017-11-09T06:44:07.347Z,56
2017-11-09T06:44:47.921Z,60
2017-11-09T06:45:28.501Z,60
2017-11-09T06:46:09.080Z,64
2017-11-09T06:46:49.654Z,64
2017-11-09T06:47:30.277Z,68
2017-11-09T06:48:10.833Z,68
2017-11-09T06:48:51.382Z,72
2017-11-09T06:49:31.971Z,72
2017-11-09T06:50:12.594Z,76
2017-11-09T06:50:53.168Z,76
2017-11-09T06:51:33.774Z,76
2017-11-09T06:52:14.345Z,80
2017-11-09T06:52:54.908Z,76
2017-11-09T06:53:35.494Z,80
2017-11-09T06:54:16.889Z,80
2017-11-09T06:54:57.481Z,80
2017-11-09T06:55:38.129Z,88
2017-11-09T06:56:18.740Z,88
2017-11-09T06:56:59.323Z,88
2017-11-09T06:57:39.914Z,88
2017-11-09T06:58:20.514Z,92
2017-11-09T06:59:01.530Z,92
2017-11-09T06:59:42.127Z,96
2017-11-09T07:00:22.777Z,96
2017-11-09T07:01:03.593Z,100
2017-11-09T07:01:44.292Z,96
2017-11-09T07:02:25.055Z,104
2017-11-09T07:03:06.409Z,104
2017-11-09T07:03:47.082Z,104
2017-11-09T07:04:27.969Z,108
2017-11-09T07:05:08.913Z,112
2017-11-09T07:05:49.806Z,112
2017-11-09T07:06:30.403Z,116
2017-11-09T07:07:10.972Z,116
2017-11-09T07:07:51.990Z,116
2017-11-09T07:08:32.772Z,120
2017-11-09T07:09:13.406Z,124
2017-11-09T07:09:53.967Z,132
2017-11-09T07:10:34.616Z,132
2017-11-09T07:11:15.197Z,132
2017-11-09T07:11:55.776Z,132
2017-11-09T07:12:36.368Z,132
2017-11-09T07:13:16.950Z,136
2017-11-09T07:13:57.534Z,140
2017-11-09T07:14:38.109Z,136
2017-11-09T07:15:18.672Z,136
2017-11-09T07:15:59.269Z,140
2017-11-09T07:16:39.881Z,148
2017-11-09T07:17:20.466Z,148
2017-11-09T07:18:01.065Z,156
2017-11-09T07:18:41.648Z,164
2017-11-09T07:19:22.209Z,172
2017-11-09T07:20:02.811Z,176
2017-11-09T07:20:43.386Z,172
2017-11-09T07:21:23.972Z,172
2017-11-09T07:22:04.560Z,164
2017-11-09T07:22:45.133Z,156
2017-11-09T07:23:25.699Z,156
2017-11-09T07:24:06.284Z,160
2017-11-09T07:24:46.866Z,160
2017-11-09T07:25:27.485Z,160
2017-11-09T07:26:08.071Z,160
2017-11-09T07:26:48.635Z,164
2017-11-09T07:27:29.201Z,168
2017-11-09T07:28:09.813Z,180
2017-11-09T07:28:50.405Z,188
2017-11-09T07:29:30.962Z,188
2017-11-09T07:30:11.604Z,180
2017-11-09T07:30:52.186Z,172
2017-11-09T07:31:32.768Z,168
2017-11-09T07:32:13.380Z,168
2017-11-09T07:32:53.929Z,168
2017-11-09T07:33:34.492Z,176
2017-11-09T07:34:15.070Z,188
2017-11-09T07:34:55.636Z,196
2017-11-09T07:35:36.211Z,200
2017-11-09T07:36:16.792Z,200
2017-11-09T07:36:57.353Z,204
2017-11-09T07:37:37.909Z,212
2017-11-09T07:38:18.502Z,216
2017-11-09T07:38:59.091Z,232
2017-11-09T07:39:39.666Z,236
2017-11-09T07:40:20.241Z,244
2017-11-09T07:41:00.806Z,244
2017-11-09T07:41:41.408Z,248
2017-11-09T07:42:22.002Z,248
2017-11-09T07:43:02.580Z,252
2017-11-09T07:43:43.145Z,256
2017-11-09T07:44:23.733Z,268
2017-11-09T07:45:04.308Z,272
2017-11-09T07:45:44.871Z,276
2017-11-09T07:46:25.453Z,280
2017-11-09T07:47:06.018Z,292
2017-11-09T07:47:46.623Z,300
2017-11-09T07:48:27.503Z,304
2017-11-09T07:49:08.002Z,308
2017-11-09T07:49:48.622Z,308
2017-11-09T07:50:29.284Z,300
2017-11-09T07:51:09.816Z,300
2017-11-09T07:51:50.372Z,300
2017-11-09T07:52:30.961Z,308
2017-11-09T07:53:11.543Z,324
2017-11-09T07:53:52.115Z,336
2017-11-09T07:54:32.665Z,344
2017-11-09T07:55:13.244Z,340
2017-11-09T07:55:53.810Z,340
2017-11-09T07:56:34.376Z,336
2017-11-09T07:57:14.968Z,340
2017-11-09T07:57:55.546Z,344
2017-11-09T07:58:36.242Z,352
2017-11-09T07:59:16.831Z,360
2017-11-09T07:59:57.401Z,364
2017-11-09T08:00:37.998Z,368
2017-11-09T08:01:18.575Z,376
2017-11-09T08:01:59.131Z,376
2017-11-09T08:02:39.711Z,380
2017-11-09T08:03:20.284Z,388
2017-11-09T08:04:00.863Z,392
2017-11-09T08:04:41.418Z,392
2017-11-09T08:05:21.996Z,400
2017-11-09T08:06:02.556Z,408
2017-11-09T08:06:43.154Z,420
2017-11-09T08:07:23.723Z,416
2017-11-09T08:08:04.297Z,412
2017-11-09T08:08:44.869Z,408
2017-11-09T08:09:25.439Z,404
2017-11-09T08:10:06.006Z,400
2017-11-09T08:10:46.591Z,396
2017-11-09T08:11:27.221Z,392
2017-11-09T08:12:07.871Z,392
2017-11-09T08:12:48.455Z,388
2017-11-09T08:13:29.024Z,396
2017-11-09T08:14:09.601Z,400
2017-11-09T08:14:50.295Z,408
2017-11-09T08:15:30.857Z,416
2017-11-09T08:16:11.436Z,416
2017-11-09T08:16:52.032Z,424
2017-11-09T08:17:32.797Z,428
2017-11-09T08:18:13.361Z,432
2017-11-09T08:18:53.995Z,436
2017-11-09T08:19:34.556Z,444
2017-11-09T08:20:15.129Z,448
2017-11-09T08:20:55.697Z,460
2017-11-09T08:21:36.321Z,468
2017-11-09T08:22:16.885Z,472
2017-11-09T08:22:57.481Z,476
2017-11-09T08:23:38.047Z,484
2017-11-09T08:24:18.623Z,488
2017-11-09T08:24:59.220Z,492
2017-11-09T08:25:39.794Z,496
2017-11-09T08:26:20.358Z,500
2017-11-09T08:27:00.931Z,508
2017-11-09T08:27:42.376Z,516
2017-11-09T08:28:23.130Z,524
2017-11-09T08:29:03.709Z,524
2017-11-09T08:29:44.342Z,532
2017-11-09T08:30:24.911Z,536
2017-11-09T08:31:05.534Z,544
2017-11-09T08:31:46.099Z,548
2017-11-09T08:32:26.666Z,544
2017-11-09T08:33:07.241Z,544
2017-11-09T08:33:48.108Z,544
2017-11-09T08:34:28.705Z,552
2017-11-09T08:35:09.405Z,560
2017-11-09T08:35:49.972Z,576
2017-11-09T08:36:30.553Z,588
2017-11-09T08:37:11.143Z,604
2017-11-09T08:37:51.693Z,616
2017-11-09T08:38:32.327Z,624
2017-11-09T08:39:12.897Z,632
2017-11-09T08:39:53.458Z,628
2017-11-09T08:40:34.011Z,632
2017-11-09T08:41:14.583Z,640
2017-11-09T08:41:55.160Z,644
2017-11-09T08:42:35.715Z,648
2017-11-09T08:43:16.288Z,652
2017-11-09T08:43:56.870Z,656
2017-11-09T08:44:37.450Z,660
2017-11-09T08:45:18.055Z,680
2017-11-09T08:45:58.608Z,696
2017-11-09T08:46:39.191Z,720
2017-11-09T08:47:19.751Z,744
2017-11-09T08:48:00.313Z,764
2017-11-09T08:48:40.883Z,788
2017-11-09T08:49:21.476Z,800
2017-11-09T08:50:02.056Z,804
2017-11-09T08:50:42.631Z,796
2017-11-09T08:51:23.196Z,784
2017-11-09T08:52:03.799Z,780
2017-11-09T08:52:44.364Z,776
2017-11-09T08:53:24.952Z,772
2017-11-09T08:54:05.520Z,764
2017-11-09T08:54:46.103Z,752
2017-11-09T08:55:26.651Z,760
2017-11-09T08:56:07.216Z,792
2017-11-09T08:56:47.799Z,812
2017-11-09T08:57:28.381Z,808
2017-11-09T08:58:08.952Z,800
2017-11-09T08:58:49.511Z,852
2017-11-09T08:59:30.123Z,896
2017-11-09T09:00:10.709Z,884
2017-11-09T09:00:51.274Z,920
2017-11-09T09:01:31.886Z,972
2017-11-09T09:02:12.439Z,992
2017-11-09T09:02:53.042Z,1016
2017-11-09T09:03:33.629Z,1076
2017-11-09T09:04:14.214Z,1148
2017-11-09T09:04:54.793Z,1164
2017-11-09T09:05:35.358Z,1096
2017-11-09T09:06:15.963Z,992
2017-11-09T09:06:56.525Z,944
2017-11-09T09:07:37.114Z,916
2017-11-09T09:08:17.689Z,900
2017-11-09T09:08:58.289Z,900
2017-11-09T09:09:38.887Z,916
2017-11-09T09:10:19.472Z,944
2017-11-09T09:11:00.043Z,996
2017-11-09T09:11:40.601Z,1044
2017-11-09T09:12:21.169Z,1052
2017-11-09T09:13:01.740Z,1056
2017-11-09T09:13:42.294Z,1040
2017-11-09T09:14:22.855Z,956
2017-11-09T09:15:03.460Z,920
2017-11-09T09:15:44.140Z,936
2017-11-09T09:16:24.727Z,948
2017-11-09T09:17:05.286Z,984
2017-11-09T09:17:45.882Z,1036
2017-11-09T09:18:26.508Z,1072
2017-11-09T09:19:07.054Z,1068
2017-11-09T09:19:47.628Z,1000
2017-11-09T09:20:28.223Z,864
2017-11-09T09:21:08.988Z,720
2017-11-09T09:21:49.511Z,636
2017-11-09T09:22:30.077Z,604
2017-11-09T09:23:10.637Z,604
2017-11-09T09:23:51.222Z,620
2017-11-09T09:24:31.797Z,656
2017-11-09T09:25:12.368Z,708
2017-11-09T09:25:52.927Z,772
2017-11-09T09:26:33.505Z,824
2017-11-09T09:27:14.065Z,816
2017-11-09T09:27:54.654Z,780
2017-11-09T09:28:35.191Z,748
2017-11-09T09:29:15.772Z,724
2017-11-09T09:29:56.322Z,724
2017-11-09T09:30:36.886Z,732
2017-11-09T09:31:17.468Z,752
2017-11-09T09:31:58.036Z,784
2017-11-09T09:32:38.589Z,824
2017-11-09T09:33:19.211Z,888
2017-11-09T09:33:59.790Z,912
2017-11-09T09:34:40.364Z,952
2017-11-09T09:35:22.444Z,1016
2017-11-09T09:36:03.593Z,1084
2017-11-09T09:36:44.569Z,1148
2017-11-09T09:37:25.375Z,1156
2017-11-09T09:38:05.977Z,1096
2017-11-09T09:38:46.586Z,1032
2017-11-09T09:39:27.142Z,980
2017-11-09T09:40:07.734Z,956
2017-11-09T09:40:48.308Z,944
2017-11-09T09:41:28.888Z,932
2017-11-09T09:42:09.477Z,920
2017-11-09T09:42:50.560Z,936
2017-11-09T09:43:31.400Z,952
2017-11-09T09:44:12.533Z,952
2017-11-09T09:44:53.115Z,964
2017-11-09T09:45:33.696Z,972
2017-11-09T09:46:14.396Z,948